• Join FlightAware (Why Join?)
  • Login
  • US Flag 
03:09AM EDT


 

Airport Tracker/Info


-or-


 

Live Flight TrackerFlight Track Log ✈ SWA534 ✈ 2013年08月18日 ✈ KSLC - KLAS

Flight Track Log - Related Links

Times and Time Zones

All times are in EDT time to prevent confusion due to time zone crossing. See the SWA534 flight status page for this flight to view local times or setup timezone preferences in your user account.

Time Position Orientation Groundspeed Altitude Reporting Facility
EDT Latitude Longitude Course Direction KTS MPH feet Rate Location/Type
01:14AM 40.7647 -111.9739 179° South 180 207 5,200  Level Salt Lake Center
01:14AM 40.7256 -111.9728 179° South 199 229 5,900 1,620 Climbing Salt Lake Center
01:15AM 40.6578 -111.9675 177° South 238 274 8,000 1,380 Climbing Salt Lake Center
01:16AM 40.6347 -111.9636 173° South 248 285 8,200 1,560 Climbing Salt Lake Center
01:17AM 40.5364 -111.9575 177° South 297 342 10,700 2,160 Climbing Salt Lake Center
01:18AM 40.4408 -111.9511 177° South 343 395 12,700 2,100 Climbing Salt Lake Center
01:19AM 40.3419 -111.9439 177° South 355 409 15,000 2,400 Climbing Salt Lake Center
01:20AM 40.2181 -111.9481 181° South 379 436 17,600 2,220 Climbing Salt Lake Center
01:21AM 40.1108 -111.9647 187° South 389 448 19,500 1,980 Climbing Salt Lake Center
01:22AM 40.0075 -112.0133 200° South 401 461 21,700 1,980 Climbing Salt Lake Center
01:23AM 39.9067 -112.0786 206° Southwest 403 464 23,600 1,740 Climbing Salt Lake Center
01:24AM 39.8047 -112.1444 206° Southwest 407 468 25,300 1,500 Climbing Salt Lake Center
01:25AM 39.6944 -112.1969 200° South 422 486 26,700 1,380 Climbing Salt Lake Center
01:26AM 39.5783 -112.2283 192° South 425 489 28,200 1,320 Climbing Salt Lake Center
01:27AM 39.4617 -112.2611 192° South 430 495 29,500 1,440 Climbing Salt Lake Center
01:28AM 39.3461 -112.2978 194° South 428 493 31,200 1,200 Climbing Salt Lake Center
01:29AM 39.2431 -112.3628 206° Southwest 414 476 32,000 360 Climbing Salt Lake Center
01:30AM 39.1428 -112.4300 207° Southwest 425 489 32,000  Level Salt Lake Center
01:31AM 39.0164 -112.5136 207° Southwest 426 490 32,000  Level Salt Lake Center
01:32AM 38.9111 -112.5833 207° Southwest 427 491 32,000  Level Salt Lake Center
01:33AM 38.8064 -112.6533 208° Southwest 426 490 32,000  Level Salt Lake Center
01:34AM 38.7031 -112.7239 208° Southwest 423 487 32,000  Level Salt Lake Center
01:35AM 38.5989 -112.7922 207° Southwest 422 486 32,000  Level Salt Lake Center
01:36AM 38.4936 -112.8597 207° Southwest 425 489 32,000  Level Salt Lake Center
01:37AM 38.3881 -112.9289 207° Southwest 426 490 32,000  Level Salt Lake Center
01:38AM 38.2803 -113.0003 207° Southwest 436 502 32,000  Level Salt Lake Center
01:39AM 38.1719 -113.0714 207° Southwest 440 506 32,000  Level Salt Lake Center
01:40AM 38.0611 -113.1433 207° Southwest 448 516 32,000  Level Salt Lake Center
01:41AM 37.9531 -113.2144 207° Southwest 443 510 32,000  Level Salt Lake Center
01:42AM 37.8444 -113.2844 207° Southwest 441 507 32,000  Level Salt Lake Center
01:43AM 37.7369 -113.3531 207° Southwest 440 506 32,000  Level Salt Lake Center
01:44AM 37.6297 -113.4211 207° Southwest 436 502 32,000 -60 Level Salt Lake Center
01:45AM 37.5231 -113.4892 207° Southwest 436 502 31,900 -660 Descending Los Angeles Center
01:46AM 37.4133 -113.5433 201° Southwest 429 494 30,800 -1,080 Descending Los Angeles Center
01:47AM 37.3014 -113.5739 192° South 415 478 29,800 -1,140 Descending Los Angeles Center
01:48AM 37.1681 -113.6103 192° South 410 472 28,600 -1,020 Descending Los Angeles Center
01:49AM 37.0808 -113.6339 192° South 405 466 27,800 -1,020 Descending Los Angeles Center
01:50AM 36.9656 -113.7119 208° Southwest 397 457 26,600 -1,140 Descending Los Angeles Center
01:51AM 36.8786 -113.7958 218° Southwest 395 455 25,600 -1,320 Descending Los Angeles Center
01:52AM 36.7983 -113.8956 225° Southwest 384 442 24,000 -1,740 Descending Los Angeles Center
01:53AM 36.7367 -113.9875 230° Southwest 370 426 22,100 -2,040 Descending Los Angeles Center
01:54AM 36.6686 -114.0869 230° Southwest 377 434 19,900 -2,100 Descending Los Angeles Center
01:55AM 36.6008 -114.1831 229° Southwest 373 429 17,900 -2,100 Descending Los Angeles Center
01:56AM 36.5536 -114.2458 227° Southwest 368 423 16,600 -2,100 Descending Los Angeles Center
01:57AM 36.4964 -114.3381 232° Southwest 351 404 14,600 -2,040 Descending Los Angeles Center
01:58AM 36.4256 -114.4372 228° Southwest 336 387 12,400 -1,320 Descending Los Angeles Center
01:59AM 36.3697 -114.4883 216° Southwest 305 351 12,000 -780 Descending Los Angeles Center
02:00AM 36.2936 -114.4956 184° South 258 297 11,000 -1,020 Descending Los Angeles Center
02:01AM 36.2211 -114.5014 184° South 256 295 10,000 -1,020 Descending Los Angeles Center
02:02AM 36.1494 -114.5283 197° South 256 295 8,900 -900 Descending Los Angeles Center
02:03AM 36.1133 -114.5992 238° Southwest 249 287 8,100 -480 Descending Los Angeles Center
02:04AM 36.0792 -114.6800 242° Southwest 245 282 8,000 -120 Descending Los Angeles Center
02:05AM 36.0731 -114.7594 265° West 233 268 7,900 -780 Descending Los Angeles Center
02:06AM 36.0728 -114.8472 270° West 238 274 6,400 -1,320 Descending Los Angeles Center
02:07AM 36.0742 -114.9214 271° West 218 251 5,200 -1,140 Descending Los Angeles Center
02:08AM 36.0731 -114.9856 269° West 195 224 4,300 -960 Descending Los Angeles Center
02:09AM 36.0744 -115.0411 272° West 157 181 3,400 -840 Descending Los Angeles Center
02:10AM 36.0725 -115.0922 267° West 143 165 2,700 -720 Descending Los Angeles Center
02:13AM 36.0667 -115.1500 219° Southwest  Level FlightAware Approximate